sensor_id;sensor_type;location;lat;lon;timestamp;pressure;altitude;pressure_sealevel;temperature;humidity
56600;BME280;51832;48.152;11.530;2023-02-17T00:01:48;96294.53;;;13.84;34.07
56600;BME280;51832;48.152;11.530;2023-02-17T00:06:49;96306.22;;;13.77;34.20
56600;BME280;51832;48.152;11.530;2023-02-17T00:11:50;96317.38;;;13.61;34.88
56600;BME280;51832;48.152;11.530;2023-02-17T00:16:51;96310.13;;;13.93;34.27
56600;BME280;51832;48.152;11.530;2023-02-17T00:21:54;96315.47;;;13.49;35.16
56600;BME280;51832;48.152;11.530;2023-02-17T00:26:55;96315.03;;;13.71;34.97
56600;BME280;51832;48.152;11.530;2023-02-17T00:31:55;96286.44;;;13.43;34.94
56600;BME280;51832;48.152;11.530;2023-02-17T00:36:56;96311.19;;;13.48;35.20
56600;BME280;51832;48.152;11.530;2023-02-17T00:41:57;96299.03;;;13.23;35.60
56600;BME280;51832;48.152;11.530;2023-02-17T00:46:57;96305.13;;;13.66;34.63
56600;BME280;51832;48.152;11.530;2023-02-17T00:51:59;96298.41;;;13.45;34.93
56600;BME280;51832;48.152;11.530;2023-02-17T00:57:00;96296.88;;;13.38;35.31
56600;BME280;51832;48.152;11.530;2023-02-17T01:02:01;96311.53;;;13.34;35.38
56600;BME280;51832;48.152;11.530;2023-02-17T01:07:02;96313.91;;;13.17;35.70
56600;BME280;51832;48.152;11.530;2023-02-17T01:12:02;96312.97;;;13.05;35.91
56600;BME280;51832;48.152;11.530;2023-02-17T01:17:03;96321.91;;;12.79;36.44
56600;BME280;51832;48.152;11.530;2023-02-17T01:22:04;96300.28;;;12.64;36.58
56600;BME280;51832;48.152;11.530;2023-02-17T01:27:04;96301.72;;;12.60;36.25
56600;BME280;51832;48.152;11.530;2023-02-17T01:32:05;96290.34;;;12.91;35.99
56600;BME280;51832;48.152;11.530;2023-02-17T01:37:05;96296.84;;;12.63;36.11
56600;BME280;51832;48.152;11.530;2023-02-17T01:42:13;96299.25;;;12.65;36.04
56600;BME280;51832;48.152;11.530;2023-02-17T01:47:14;96288.72;;;12.58;36.55
56600;BME280;51832;48.152;11.530;2023-02-17T01:52:20;96299.38;;;12.76;35.67
56600;BME280;51832;48.152;11.530;2023-02-17T01:57:24;96285.28;;;12.58;35.78
56600;BME280;51832;48.152;11.530;2023-02-17T02:02:26;96288.63;;;12.71;35.53
56600;BME280;51832;48.152;11.530;2023-02-17T02:07:33;96282.81;;;13.12;34.88
56600;BME280;51832;48.152;11.530;2023-02-17T02:12:37;96288.78;;;13.08;34.97
56600;BME280;51832;48.152;11.530;2023-02-17T02:33:33;96278.97;;;13.15;35.34
56600;BME280;51832;48.152;11.530;2023-02-17T02:38:49;96288.28;;;12.93;36.07
56600;BME280;51832;48.152;11.530;2023-02-17T02:43:52;96296.03;;;12.88;36.13
56600;BME280;51832;48.152;11.530;2023-02-17T02:48:53;96294.06;;;12.83;36.42
56600;BME280;51832;48.152;11.530;2023-02-17T02:54:01;96285.44;;;13.19;35.92
56600;BME280;51832;48.152;11.530;2023-02-17T03:09:31;96260.47;;;12.90;36.84
56600;BME280;51832;48.152;11.530;2023-02-17T03:14:35;96260.00;;;13.25;36.33
56600;BME280;51832;48.152;11.530;2023-02-17T03:19:37;96257.66;;;12.85;36.97
56600;BME280;51832;48.152;11.530;2023-02-17T03:24:38;96256.09;;;13.02;36.83
56600;BME280;51832;48.152;11.530;2023-02-17T03:29:38;96260.47;;;12.90;36.88
56600;BME280;51832;48.152;11.530;2023-02-17T03:34:39;96233.56;;;13.00;36.49
56600;BME280;51832;48.152;11.530;2023-02-17T03:39:39;96237.38;;;13.04;36.51
56600;BME280;51832;48.152;11.530;2023-02-17T03:44:40;96248.38;;;13.26;36.20
56600;BME280;51832;48.152;11.530;2023-02-17T03:49:42;96242.97;;;12.96;36.52
56600;BME280;51832;48.152;11.530;2023-02-17T03:54:43;96246.41;;;12.96;36.35
56600;BME280;51832;48.152;11.530;2023-02-17T03:59:43;96248.16;;;13.02;36.12
56600;BME280;51832;48.152;11.530;2023-02-17T04:04:44;96237.06;;;12.94;36.39
56600;BME280;51832;48.152;11.530;2023-02-17T04:09:44;96241.38;;;12.63;36.83
56600;BME280;51832;48.152;11.530;2023-02-17T04:14:45;96236.38;;;12.55;36.98
56600;BME280;51832;48.152;11.530;2023-02-17T04:19:46;96240.94;;;13.16;35.83
56600;BME280;51832;48.152;11.530;2023-02-17T04:24:46;96238.34;;;13.09;35.65
56600;BME280;51832;48.152;11.530;2023-02-17T04:29:47;96206.53;;;12.79;36.15
56600;BME280;51832;48.152;11.530;2023-02-17T04:34:47;96224.56;;;13.07;35.55
56600;BME280;51832;48.152;11.530;2023-02-17T04:39:48;96213.78;;;12.59;36.31
56600;BME280;51832;48.152;11.530;2023-02-17T04:44:49;96235.84;;;12.96;35.66
56600;BME280;51832;48.152;11.530;2023-02-17T04:49:49;96228.16;;;12.88;36.29
56600;BME280;51832;48.152;11.530;2023-02-17T04:54:50;96223.25;;;13.16;35.45
56600;BME280;51832;48.152;11.530;2023-02-17T04:59:51;96214.31;;;13.18;35.68
56600;BME280;51832;48.152;11.530;2023-02-17T05:04:52;96225.47;;;12.95;36.12
56600;BME280;51832;48.152;11.530;2023-02-17T05:09:53;96220.22;;;13.13;40.70
56600;BME280;51832;48.152;11.530;2023-02-17T05:14:54;96218.56;;;13.73;35.93
56600;BME280;51832;48.152;11.530;2023-02-17T05:19:54;96214.25;;;13.42;37.22
56600;BME280;51832;48.152;11.530;2023-02-17T05:24:55;96205.63;;;13.10;37.21
56600;BME280;51832;48.152;11.530;2023-02-17T05:29:55;96201.13;;;12.93;36.50
56600;BME280;51832;48.152;11.530;2023-02-17T05:34:56;96205.81;;;13.34;35.67
56600;BME280;51832;48.152;11.530;2023-02-17T05:39:56;96199.88;;;12.95;36.48
56600;BME280;51832;48.152;11.530;2023-02-17T05:44:57;96205.59;;;12.92;36.85
56600;BME280;51832;48.152;11.530;2023-02-17T05:49:57;96212.88;;;12.72;36.96
56600;BME280;51832;48.152;11.530;2023-02-17T05:54:58;96205.50;;;12.80;37.02
56600;BME280;51832;48.152;11.530;2023-02-17T05:59:58;96227.09;;;12.96;36.70
56600;BME280;51832;48.152;11.530;2023-02-17T06:04:59;96213.38;;;13.05;37.18
56600;BME280;51832;48.152;11.530;2023-02-17T06:09:59;96231.41;;;12.90;37.49
56600;BME280;51832;48.152;11.530;2023-02-17T06:15:00;96222.63;;;12.71;38.18
56600;BME280;51832;48.152;11.530;2023-02-17T06:20:04;96239.72;;;12.94;38.13
56600;BME280;51832;48.152;11.530;2023-02-17T06:25:05;96226.41;;;12.82;39.02
56600;BME280;51832;48.152;11.530;2023-02-17T06:30:07;96232.88;;;12.61;41.42
56600;BME280;51832;48.152;11.530;2023-02-17T06:35:08;96245.00;;;12.69;43.04
56600;BME280;51832;48.152;11.530;2023-02-17T06:40:09;96232.81;;;12.68;44.13
56600;BME280;51832;48.152;11.530;2023-02-17T06:45:10;96243.91;;;13.01;43.03
56600;BME280;51832;48.152;11.530;2023-02-17T06:50:11;96251.84;;;12.76;43.81
56600;BME280;51832;48.152;11.530;2023-02-17T06:55:11;96241.13;;;12.96;43.11
56600;BME280;51832;48.152;11.530;2023-02-17T07:00:12;96239.94;;;12.92;42.42
56600;BME280;51832;48.152;11.530;2023-02-17T07:05:13;96244.00;;;13.56;41.59
56600;BME280;51832;48.152;11.530;2023-02-17T07:10:14;96238.97;;;13.30;42.09
56600;BME280;51832;48.152;11.530;2023-02-17T07:15:14;96224.59;;;13.26;42.82
56600;BME280;51832;48.152;11.530;2023-02-17T07:20:15;96223.66;;;13.13;44.02
56600;BME280;51832;48.152;11.530;2023-02-17T07:25:16;96250.38;;;13.30;44.52
56600;BME280;51832;48.152;11.530;2023-02-17T07:30:16;96241.88;;;13.46;45.06
56600;BME280;51832;48.152;11.530;2023-02-17T07:35:17;96254.22;;;13.52;45.56
56600;BME280;51832;48.152;11.530;2023-02-17T07:40:18;96264.72;;;13.16;46.70
56600;BME280;51832;48.152;11.530;2023-02-17T07:45:18;96243.69;;;13.46;46.22
56600;BME280;51832;48.152;11.530;2023-02-17T07:50:19;96245.81;;;13.74;45.89
56600;BME280;51832;48.152;11.530;2023-02-17T07:55:19;96269.84;;;13.11;47.15
56600;BME280;51832;48.152;11.530;2023-02-17T08:00:20;96289.91;;;13.62;46.33
56600;BME280;51832;48.152;11.530;2023-02-17T08:05:21;96317.25;;;13.74;47.23
56600;BME280;51832;48.152;11.530;2023-02-17T08:10:22;96256.03;;;13.34;47.77
56600;BME280;51832;48.152;11.530;2023-02-17T08:15:41;96271.75;;;14.02;46.63
56600;BME280;51832;48.152;11.530;2023-02-17T08:20:42;96294.81;;;13.58;47.89
56600;BME280;51832;48.152;11.530;2023-02-17T08:25:42;96242.69;;;13.65;48.03
56600;BME280;51832;48.152;11.530;2023-02-17T08:30:43;96256.19;;;13.57;48.22
56600;BME280;51832;48.152;11.530;2023-02-17T08:35:44;96252.50;;;13.58;48.58
56600;BME280;51832;48.152;11.530;2023-02-17T08:40:45;96255.38;;;13.93;47.61
56600;BME280;51832;48.152;11.530;2023-02-17T08:45:45;96244.63;;;13.88;48.05
56600;BME280;51832;48.152;11.530;2023-02-17T08:50:46;96266.81;;;13.69;48.92
56600;BME280;51832;48.152;11.530;2023-02-17T08:55:47;96273.41;;;14.14;47.94
56600;BME280;51832;48.152;11.530;2023-02-17T09:00:47;96277.00;;;14.20;48.50
56600;BME280;51832;48.152;11.530;2023-02-17T09:05:48;96299.31;;;13.76;49.97
56600;BME280;51832;48.152;11.530;2023-02-17T09:10:49;96302.31;;;13.98;52.50
56600;BME280;51832;48.152;11.530;2023-02-17T09:15:50;96328.31;;;13.21;54.56
56600;BME280;51832;48.152;11.530;2023-02-17T09:20:53;96297.19;;;12.98;56.27
56600;BME280;51832;48.152;11.530;2023-02-17T09:26:04;96283.88;;;13.36;54.92
56600;BME280;51832;48.152;11.530;2023-02-17T09:31:14;96286.03;;;13.64;54.20
56600;BME280;51832;48.152;11.530;2023-02-17T09:36:20;96287.47;;;13.60;53.91
56600;BME280;51832;48.152;11.530;2023-02-17T09:46:44;96296.00;;;13.99;52.47
56600;BME280;51832;48.152;11.530;2023-02-17T09:51:59;96310.13;;;13.93;51.68
56600;BME280;51832;48.152;11.530;2023-02-17T09:57:02;96280.06;;;13.87;51.30
56600;BME280;51832;48.152;11.530;2023-02-17T10:02:12;96317.97;;;13.99;51.13
56600;BME280;51832;48.152;11.530;2023-02-17T10:12:28;96321.00;;;14.51;50.42
56600;BME280;51832;48.152;11.530;2023-02-17T10:22:58;96316.84;;;14.43;50.20
56600;BME280;51832;48.152;11.530;2023-02-17T10:28:08;96304.78;;;15.01;49.07
56600;BME280;51832;48.152;11.530;2023-02-17T10:43:51;96294.66;;;15.21;47.50
56600;BME280;51832;48.152;11.530;2023-02-17T10:48:53;96279.69;;;15.38;46.74
56600;BME280;51832;48.152;11.530;2023-02-17T10:59:40;96260.06;;;15.62;45.77
56600;BME280;51832;48.152;11.530;2023-02-17T11:04:44;96318.28;;;15.46;45.63
56600;BME280;51832;48.152;11.530;2023-02-17T11:09:47;96279.88;;;15.95;44.30
56600;BME280;51832;48.152;11.530;2023-02-17T11:14:50;96256.94;;;15.54;45.11
56600;BME280;51832;48.152;11.530;2023-02-17T11:19:58;96258.91;;;15.82;44.26
56600;BME280;51832;48.152;11.530;2023-02-17T11:25:01;96258.06;;;15.93;44.38
56600;BME280;51832;48.152;11.530;2023-02-17T11:30:07;96258.41;;;15.96;44.10
56600;BME280;51832;48.152;11.530;2023-02-17T11:35:21;96254.72;;;15.86;44.67
56600;BME280;51832;48.152;11.530;2023-02-17T11:40:25;96241.84;;;15.54;45.03
56600;BME280;51832;48.152;11.530;2023-02-17T11:56:18;96236.75;;;15.76;45.25
56600;BME280;51832;48.152;11.530;2023-02-17T12:23:15;96226.53;;;15.96;46.31
56600;BME280;51832;48.152;11.530;2023-02-17T12:34:00;96218.84;;;15.83;47.36
56600;BME280;51832;48.152;11.530;2023-02-17T12:39:12;96233.06;;;16.06;46.52
56600;BME280;51832;48.152;11.530;2023-02-17T12:44:19;96198.69;;;16.27;46.36
56600;BME280;51832;48.152;11.530;2023-02-17T12:59:53;96223.38;;;15.48;48.27
56600;BME280;51832;48.152;11.530;2023-02-17T13:04:57;96203.84;;;15.25;49.17
56600;BME280;51832;48.152;11.530;2023-02-17T13:10:00;96227.34;;;15.57;48.64
56600;BME280;51832;48.152;11.530;2023-02-17T13:15:05;96261.56;;;15.47;49.33
56600;BME280;51832;48.152;11.530;2023-02-17T13:20:24;96211.06;;;15.53;49.49
56600;BME280;51832;48.152;11.530;2023-02-17T13:25:29;96216.25;;;16.00;48.68
56600;BME280;51832;48.152;11.530;2023-02-17T13:30:39;96192.81;;;15.45;50.96
56600;BME280;51832;48.152;11.530;2023-02-17T13:35:40;96223.28;;;15.54;50.30
56600;BME280;51832;48.152;11.530;2023-02-17T13:40:42;96210.00;;;15.54;50.69
56600;BME280;51832;48.152;11.530;2023-02-17T13:46:02;96191.06;;;15.74;50.61
56600;BME280;51832;48.152;11.530;2023-02-17T13:51:20;96205.88;;;15.35;51.30
56600;BME280;51832;48.152;11.530;2023-02-17T13:56:26;96188.03;;;15.07;52.35
56600;BME280;51832;48.152;11.530;2023-02-17T14:01:26;96196.22;;;15.29;51.96
56600;BME280;51832;48.152;11.530;2023-02-17T14:06:37;96231.72;;;14.93;53.22
56600;BME280;51832;48.152;11.530;2023-02-17T14:11:39;96206.94;;;15.11;52.56
56600;BME280;51832;48.152;11.530;2023-02-17T14:16:41;96209.31;;;15.47;51.52
56600;BME280;51832;48.152;11.530;2023-02-17T14:22:04;96210.13;;;15.59;51.00
56600;BME280;51832;48.152;11.530;2023-02-17T14:27:09;96205.94;;;15.75;50.25
56600;BME280;51832;48.152;11.530;2023-02-17T14:32:30;96229.91;;;15.17;52.29
56600;BME280;51832;48.152;11.530;2023-02-17T14:37:31;96208.19;;;15.55;51.37
56600;BME280;51832;48.152;11.530;2023-02-17T14:42:35;96210.91;;;15.72;50.75
56600;BME280;51832;48.152;11.530;2023-02-17T14:47:36;96225.72;;;15.56;50.96
56600;BME280;51832;48.152;11.530;2023-02-17T14:52:41;96211.97;;;15.71;50.55
56600;BME280;51832;48.152;11.530;2023-02-17T14:57:42;96223.44;;;15.01;52.61
56600;BME280;51832;48.152;11.530;2023-02-17T15:02:44;96212.91;;;15.53;50.89
56600;BME280;51832;48.152;11.530;2023-02-17T15:07:44;96210.72;;;15.50;51.20
56600;BME280;51832;48.152;11.530;2023-02-17T15:12:46;96210.38;;;15.35;51.38
56600;BME280;51832;48.152;11.530;2023-02-17T15:17:47;96221.38;;;15.15;52.12
56600;BME280;51832;48.152;11.530;2023-02-17T15:22:47;96208.41;;;15.53;52.11
56600;BME280;51832;48.152;11.530;2023-02-17T15:27:52;96215.13;;;15.09;53.35
56600;BME280;51832;48.152;11.530;2023-02-17T15:32:52;96198.16;;;15.57;51.08
56600;BME280;51832;48.152;11.530;2023-02-17T15:37:53;96211.53;;;14.92;52.81
56600;BME280;51832;48.152;11.530;2023-02-17T15:42:56;96197.78;;;15.65;51.15
56600;BME280;51832;48.152;11.530;2023-02-17T15:48:24;96186.66;;;15.05;54.23
56600;BME280;51832;48.152;11.530;2023-02-17T15:53:25;96189.38;;;15.45;53.09
56600;BME280;51832;48.152;11.530;2023-02-17T15:58:26;96193.53;;;15.52;52.63
56600;BME280;51832;48.152;11.530;2023-02-17T16:03:27;96192.44;;;15.02;53.98
56600;BME280;51832;48.152;11.530;2023-02-17T16:08:27;96189.78;;;15.13;53.94
56600;BME280;51832;48.152;11.530;2023-02-17T16:13:27;96204.88;;;14.89;54.90
56600;BME280;51832;48.152;11.530;2023-02-17T16:18:28;96190.44;;;15.20;53.76
56600;BME280;51832;48.152;11.530;2023-02-17T16:23:30;96203.25;;;15.23;53.95
56600;BME280;51832;48.152;11.530;2023-02-17T16:28:31;96213.84;;;15.23;53.83
56600;BME280;51832;48.152;11.530;2023-02-17T16:33:31;96182.47;;;15.44;53.33
56600;BME280;51832;48.152;11.530;2023-02-17T16:38:32;96215.44;;;14.66;56.07
56600;BME280;51832;48.152;11.530;2023-02-17T16:43:33;96236.34;;;14.98;55.05
56600;BME280;51832;48.152;11.530;2023-02-17T16:48:35;96240.44;;;14.70;55.98
56600;BME280;51832;48.152;11.530;2023-02-17T16:53:35;96230.31;;;14.79;55.99
56600;BME280;51832;48.152;11.530;2023-02-17T16:58:36;96206.38;;;14.62;56.52
56600;BME280;51832;48.152;11.530;2023-02-17T17:03:36;96228.66;;;14.43;57.34
56600;BME280;51832;48.152;11.530;2023-02-17T17:08:36;96224.53;;;14.47;56.88
56600;BME280;51832;48.152;11.530;2023-02-17T17:13:37;96217.94;;;14.49;57.05
56600;BME280;51832;48.152;11.530;2023-02-17T17:18:37;96213.75;;;14.72;55.88
56600;BME280;51832;48.152;11.530;2023-02-17T17:23:38;96213.72;;;14.48;56.82
56600;BME280;51832;48.152;11.530;2023-02-17T17:28:39;96230.84;;;14.16;57.23
56600;BME280;51832;48.152;11.530;2023-02-17T17:33:40;96227.00;;;14.12;57.45
56600;BME280;51832;48.152;11.530;2023-02-17T17:38:40;96232.72;;;13.97;57.58
56600;BME280;51832;48.152;11.530;2023-02-17T17:43:41;96221.41;;;13.90;57.52
56600;BME280;51832;48.152;11.530;2023-02-17T17:48:44;96240.91;;;14.37;55.67
56600;BME280;51832;48.152;11.530;2023-02-17T17:53:45;96259.22;;;14.09;56.39
56600;BME280;51832;48.152;11.530;2023-02-17T17:58:46;96261.69;;;14.22;55.70
56600;BME280;51832;48.152;11.530;2023-02-17T18:03:47;96220.63;;;14.19;56.43
56600;BME280;51832;48.152;11.530;2023-02-17T18:08:49;96216.53;;;14.05;56.61
56600;BME280;51832;48.152;11.530;2023-02-17T18:13:54;96214.22;;;14.09;56.57
56600;BME280;51832;48.152;11.530;2023-02-17T18:18:57;96201.56;;;13.81;57.64
56600;BME280;51832;48.152;11.530;2023-02-17T18:23:58;96200.94;;;13.67;58.32
56600;BME280;51832;48.152;11.530;2023-02-17T18:28:58;96213.78;;;13.82;58.11
56600;BME280;51832;48.152;11.530;2023-02-17T18:33:59;96228.22;;;13.98;57.62
56600;BME280;51832;48.152;11.530;2023-02-17T18:38:59;96244.53;;;13.65;58.88
56600;BME280;51832;48.152;11.530;2023-02-17T18:44:01;96219.13;;;13.94;57.82
56600;BME280;51832;48.152;11.530;2023-02-17T18:49:02;96224.28;;;13.70;58.80
56600;BME280;51832;48.152;11.530;2023-02-17T18:54:03;96249.59;;;13.66;59.20
56600;BME280;51832;48.152;11.530;2023-02-17T18:59:04;96217.13;;;14.07;58.05
56600;BME280;51832;48.152;11.530;2023-02-17T19:04:05;96227.19;;;13.99;58.18
56600;BME280;51832;48.152;11.530;2023-02-17T19:09:06;96221.25;;;14.03;58.30
56600;BME280;51832;48.152;11.530;2023-02-17T19:14:06;96236.56;;;14.13;57.92
56600;BME280;51832;48.152;11.530;2023-02-17T19:19:07;96209.25;;;14.01;58.57
56600;BME280;51832;48.152;11.530;2023-02-17T19:24:07;96206.06;;;14.10;58.15
56600;BME280;51832;48.152;11.530;2023-02-17T19:29:08;96216.34;;;13.88;58.93
56600;BME280;51832;48.152;11.530;2023-02-17T19:34:10;96220.50;;;14.26;58.14
56600;BME280;51832;48.152;11.530;2023-02-17T19:39:10;96213.59;;;13.47;60.61
56600;BME280;51832;48.152;11.530;2023-02-17T19:44:11;96245.44;;;13.88;59.65
56600;BME280;51832;48.152;11.530;2023-02-17T19:49:12;96223.66;;;14.35;58.41
56600;BME280;51832;48.152;11.530;2023-02-17T19:54:12;96249.22;;;14.11;59.12
56600;BME280;51832;48.152;11.530;2023-02-17T19:59:13;96232.25;;;14.60;57.56
56600;BME280;51832;48.152;11.530;2023-02-17T20:04:14;96223.81;;;14.21;59.07
56600;BME280;51832;48.152;11.530;2023-02-17T20:09:17;96230.09;;;14.39;58.82
56600;BME280;51832;48.152;11.530;2023-02-17T20:14:19;96251.66;;;14.12;59.50
56600;BME280;51832;48.152;11.530;2023-02-17T20:19:20;96232.09;;;14.13;59.59
56600;BME280;51832;48.152;11.530;2023-02-17T20:24:21;96259.81;;;14.11;59.76
56600;BME280;51832;48.152;11.530;2023-02-17T20:29:23;96256.97;;;14.24;59.07
56600;BME280;51832;48.152;11.530;2023-02-17T20:39:28;96280.94;;;14.29;59.34
56600;BME280;51832;48.152;11.530;2023-02-17T20:44:28;96288.91;;;14.11;59.51
56600;BME280;51832;48.152;11.530;2023-02-17T20:49:29;96301.22;;;14.35;58.79
56600;BME280;51832;48.152;11.530;2023-02-17T20:54:29;96293.88;;;14.67;57.91
56600;BME280;51832;48.152;11.530;2023-02-17T20:59:30;96299.75;;;14.69;58.06
56600;BME280;51832;48.152;11.530;2023-02-17T21:04:30;96316.38;;;14.28;59.11
56600;BME280;51832;48.152;11.530;2023-02-17T21:09:30;96304.84;;;14.71;58.04
56600;BME280;51832;48.152;11.530;2023-02-17T21:14:31;96313.84;;;14.81;57.56
56600;BME280;51832;48.152;11.530;2023-02-17T21:19:32;96310.56;;;14.38;59.14
56600;BME280;51832;48.152;11.530;2023-02-17T21:24:32;96310.72;;;14.24;59.72
56600;BME280;51832;48.152;11.530;2023-02-17T21:29:32;96299.06;;;14.14;60.39
56600;BME280;51832;48.152;11.530;2023-02-17T21:34:37;96299.91;;;14.44;58.96
56600;BME280;51832;48.152;11.530;2023-02-17T21:39:37;96303.31;;;14.33;59.74
56600;BME280;51832;48.152;11.530;2023-02-17T21:44:38;96306.69;;;14.40;59.82
56600;BME280;51832;48.152;11.530;2023-02-17T21:49:54;96319.63;;;14.30;60.27
56600;BME280;51832;48.152;11.530;2023-02-17T21:54:54;96319.06;;;14.10;61.17
56600;BME280;51832;48.152;11.530;2023-02-17T21:59:55;96327.47;;;14.37;60.10
56600;BME280;51832;48.152;11.530;2023-02-17T22:04:55;96307.69;;;14.39;60.50
56600;BME280;51832;48.152;11.530;2023-02-17T22:09:57;96328.09;;;14.20;61.10
56600;BME280;51832;48.152;11.530;2023-02-17T22:14:58;96351.19;;;14.32;60.92
56600;BME280;51832;48.152;11.530;2023-02-17T22:19:58;96322.22;;;14.18;61.53
56600;BME280;51832;48.152;11.530;2023-02-17T22:25:02;96313.97;;;14.08;62.40
56600;BME280;51832;48.152;11.530;2023-02-17T22:30:30;96337.25;;;14.36;61.66
56600;BME280;51832;48.152;11.530;2023-02-17T22:35:42;96311.09;;;14.28;61.94
56600;BME280;51832;48.152;11.530;2023-02-17T22:40:43;96317.75;;;14.19;62.49
56600;BME280;51832;48.152;11.530;2023-02-17T22:45:43;96311.25;;;14.15;62.81
56600;BME280;51832;48.152;11.530;2023-02-17T22:50:43;96316.72;;;14.02;63.40
56600;BME280;51832;48.152;11.530;2023-02-17T22:55:54;96337.22;;;13.88;63.76
56600;BME280;51832;48.152;11.530;2023-02-17T23:01:21;96348.25;;;13.85;63.86
56600;BME280;51832;48.152;11.530;2023-02-17T23:06:25;96323.53;;;14.09;63.14
56600;BME280;51832;48.152;11.530;2023-02-17T23:11:32;96334.66;;;14.18;62.71
56600;BME280;51832;48.152;11.530;2023-02-17T23:16:54;96363.38;;;13.96;62.96
56600;BME280;51832;48.152;11.530;2023-02-17T23:21:58;96345.72;;;14.08;62.96
56600;BME280;51832;48.152;11.530;2023-02-17T23:26:59;96336.00;;;14.57;61.25
56600;BME280;51832;48.152;11.530;2023-02-17T23:32:00;96349.72;;;13.99;63.80
56600;BME280;51832;48.152;11.530;2023-02-17T23:37:00;96375.94;;;13.82;64.43
56600;BME280;51832;48.152;11.530;2023-02-17T23:42:01;96352.78;;;13.96;64.45
56600;BME280;51832;48.152;11.530;2023-02-17T23:47:02;96353.63;;;13.78;65.28
56600;BME280;51832;48.152;11.530;2023-02-17T23:52:03;96337.50;;;13.62;66.13
56600;BME280;51832;48.152;11.530;2023-02-17T23:57:03;96359.19;;;13.70;65.88
